createdAt,value
2019-01-18T00:03:43.992Z,3.90
2019-01-18T00:06:24.648Z,3.90
2019-01-18T00:09:05.121Z,3.90
2019-01-18T00:11:45.901Z,3.90
2019-01-18T00:14:24.578Z,3.80
2019-01-18T00:17:12.519Z,3.80
2019-01-18T00:20:00.577Z,3.90
2019-01-18T00:22:48.320Z,3.90
2019-01-18T00:25:36.027Z,3.90
2019-01-18T00:28:23.756Z,4.00
2019-01-18T00:31:11.539Z,4.00
2019-01-18T00:33:59.520Z,3.90
2019-01-18T00:36:47.472Z,3.90
2019-01-18T00:39:28.143Z,3.80
2019-01-18T00:42:08.835Z,3.80
2019-01-18T00:44:49.639Z,3.70
2019-01-18T00:47:30.264Z,3.60
2019-01-18T00:50:11.173Z,3.50
2019-01-18T00:52:52.168Z,3.40
2019-01-18T00:55:33.159Z,3.30
2019-01-18T00:58:13.457Z,3.20
2019-01-18T01:00:54.448Z,3.10
2019-01-18T01:03:34.963Z,3.00
2019-01-18T01:06:15.819Z,2.90
2019-01-18T01:08:56.410Z,2.90
2019-01-18T01:11:36.835Z,2.80
2019-01-18T01:14:17.492Z,2.80
2019-01-18T01:16:57.991Z,2.80
2019-01-18T01:19:38.676Z,2.80
2019-01-18T01:22:19.168Z,2.80
2019-01-18T01:24:59.792Z,2.90
2019-01-18T01:27:40.382Z,2.90
2019-01-18T01:30:21.160Z,3.00
2019-01-18T01:33:02.061Z,3.00
2019-01-18T01:35:42.796Z,3.00
2019-01-18T01:38:23.185Z,3.00
2019-01-18T01:41:03.915Z,3.10
2019-01-18T01:43:44.771Z,3.10
2019-01-18T01:46:25.284Z,3.10
2019-01-18T01:49:06.220Z,3.10
2019-01-18T01:51:46.779Z,3.10
2019-01-18T01:54:27.223Z,3.10
2019-01-18T01:57:07.813Z,3.10
2019-01-18T01:59:49.884Z,3.20
2019-01-18T02:02:31.431Z,3.30
2019-01-18T02:05:11.711Z,3.30
2019-01-18T02:07:52.652Z,3.30
2019-01-18T02:10:33.200Z,3.30
2019-01-18T02:13:14.283Z,3.30
2019-01-18T02:15:55.075Z,3.40
2019-01-18T02:18:35.580Z,3.40
2019-01-18T02:21:16.276Z,3.40
2019-01-18T02:23:57.020Z,3.40
2019-01-18T02:26:37.566Z,3.40
2019-01-18T02:29:18.288Z,3.30
2019-01-18T02:31:58.548Z,3.30
2019-01-18T02:34:39.127Z,3.30
2019-01-18T02:37:20.212Z,3.30
2019-01-18T02:40:00.728Z,3.30
2019-01-18T02:42:42.804Z,3.30
2019-01-18T02:45:23.172Z,3.30
2019-01-18T02:48:04.016Z,3.20
2019-01-18T02:50:44.907Z,3.20
2019-01-18T02:53:25.749Z,3.10
2019-01-18T02:56:06.712Z,3.10
2019-01-18T02:58:47.728Z,3.10
2019-01-18T03:01:28.292Z,3.20
2019-01-18T03:04:08.975Z,3.10
2019-01-18T03:06:49.231Z,3.10
2019-01-18T03:09:29.789Z,3.00
2019-01-18T03:12:10.742Z,3.00
2019-01-18T03:14:50.968Z,2.90
2019-01-18T03:17:31.236Z,2.90
2019-01-18T03:20:11.839Z,2.90
2019-01-18T03:22:52.407Z,2.90
2019-01-18T03:25:32.916Z,2.90
2019-01-18T03:28:13.565Z,2.90
2019-01-18T03:30:54.613Z,3.00
2019-01-18T03:36:19.268Z,2.90
2019-01-18T03:38:59.912Z,2.90
2019-01-18T03:41:40.639Z,2.80
2019-01-18T03:44:21.443Z,2.80
2019-01-18T03:47:01.992Z,2.70
2019-01-18T03:49:42.944Z,2.70
2019-01-18T03:52:23.792Z,2.70
2019-01-18T03:55:04.563Z,2.70
2019-01-18T03:57:45.177Z,2.70
2019-01-18T04:00:26.642Z,2.80
2019-01-18T04:03:07.149Z,2.80
2019-01-18T04:05:47.795Z,2.80
2019-01-18T04:08:28.268Z,2.90
2019-01-18T04:11:09.024Z,2.90
2019-01-18T04:13:49.916Z,3.00
2019-01-18T04:16:31.176Z,3.10
2019-01-18T04:19:12.438Z,3.10
2019-01-18T04:21:52.957Z,3.10
2019-01-18T04:24:33.613Z,3.20
2019-01-18T04:27:14.271Z,3.20
2019-01-18T04:29:54.456Z,3.30
2019-01-18T04:32:34.732Z,3.30
2019-01-18T04:35:14.885Z,3.30
2019-01-18T04:37:55.368Z,3.30
2019-01-18T04:40:39.229Z,3.40
2019-01-18T04:43:19.764Z,3.40
2019-01-18T04:46:00.629Z,3.40
2019-01-18T04:48:41.624Z,3.30
2019-01-18T04:51:22.687Z,3.20
2019-01-18T04:54:03.956Z,3.00
2019-01-18T04:56:45.020Z,2.90
2019-01-18T04:59:25.304Z,2.90
2019-01-18T05:02:05.645Z,2.90
2019-01-18T05:04:46.159Z,2.90
2019-01-18T05:07:26.723Z,2.90
2019-01-18T05:10:07.472Z,2.90
2019-01-18T05:12:48.144Z,3.00
2019-01-18T05:15:28.836Z,3.00
2019-01-18T05:18:09.433Z,3.00
2019-01-18T05:20:50.577Z,3.10
2019-01-18T05:23:31.499Z,3.10
2019-01-18T05:26:12.499Z,3.10
2019-01-18T05:28:52.886Z,3.10
2019-01-18T05:31:33.696Z,3.20
2019-01-18T05:34:14.262Z,3.10
2019-01-18T05:36:55.245Z,3.10
2019-01-18T05:39:36.199Z,3.10
2019-01-18T05:42:16.815Z,3.00
2019-01-18T05:44:57.391Z,3.00
2019-01-18T05:47:37.968Z,3.00
2019-01-18T05:50:18.561Z,3.00
2019-01-18T05:53:01.416Z,3.00
2019-01-18T05:55:42.219Z,3.00
2019-01-18T05:58:22.784Z,2.90
2019-01-18T06:01:03.742Z,2.80
2019-01-18T06:03:43.944Z,2.70
2019-01-18T06:06:24.708Z,2.50
2019-01-18T06:09:05.335Z,2.40
2019-01-18T06:11:45.932Z,2.30
2019-01-18T06:14:26.596Z,2.20
2019-01-18T06:17:06.949Z,2.10
2019-01-18T06:19:47.979Z,2.00
2019-01-18T06:22:28.379Z,2.00
2019-01-18T06:25:09.076Z,1.90
2019-01-18T06:27:49.741Z,1.80
2019-01-18T06:30:30.573Z,1.80
2019-01-18T06:33:11.440Z,1.70
2019-01-18T06:35:52.312Z,1.70
2019-01-18T06:38:32.924Z,1.70
2019-01-18T06:41:15.056Z,1.60
2019-01-18T06:43:55.936Z,1.60
2019-01-18T06:46:36.880Z,1.60
2019-01-18T06:49:17.467Z,1.50
2019-01-18T06:51:58.127Z,1.50
2019-01-18T06:54:38.576Z,1.50
2019-01-18T06:57:19.252Z,1.50
2019-01-18T06:59:59.983Z,1.50
2019-01-18T07:02:41.899Z,1.50
2019-01-18T07:05:23.280Z,1.40
2019-01-18T07:08:03.860Z,1.40
2019-01-18T07:10:44.756Z,1.40
2019-01-18T07:13:25.147Z,1.40
2019-01-18T07:16:05.775Z,1.30
2019-01-18T07:18:46.236Z,1.40
2019-01-18T07:21:26.877Z,1.30
2019-01-18T07:24:07.824Z,1.40
2019-01-18T07:26:48.583Z,1.40
2019-01-18T07:29:29.647Z,1.40
2019-01-18T07:32:10.341Z,1.40
2019-01-18T07:34:51.076Z,1.40
2019-01-18T07:37:31.784Z,1.40
2019-01-18T07:40:12.076Z,1.40
2019-01-18T07:42:52.712Z,1.50
2019-01-18T07:45:33.933Z,1.60
2019-01-18T07:48:14.180Z,1.60
2019-01-18T07:50:54.635Z,1.60
2019-01-18T07:53:35.712Z,1.50
2019-01-18T07:56:16.124Z,1.40
2019-01-18T07:58:56.907Z,1.40
2019-01-18T08:01:37.506Z,1.40
2019-01-18T08:04:18.541Z,1.40
2019-01-18T08:06:59.204Z,1.50
2019-01-18T08:09:39.740Z,1.50
2019-01-18T08:12:20.291Z,1.60
2019-01-18T08:15:00.948Z,1.60
2019-01-18T08:17:41.576Z,1.70
2019-01-18T08:20:22.359Z,1.70
2019-01-18T08:23:03.290Z,1.90
2019-01-18T08:25:44.040Z,2.00
2019-01-18T08:28:24.500Z,2.10
2019-01-18T08:31:05.348Z,2.20
2019-01-18T08:33:46.288Z,2.30
2019-01-18T08:36:26.804Z,2.40
2019-01-18T08:39:07.999Z,2.50
2019-01-18T08:41:48.660Z,2.70
2019-01-18T08:44:29.260Z,2.80
2019-01-18T08:47:10.106Z,3.00
2019-01-18T08:49:50.737Z,3.10
2019-01-18T08:52:31.300Z,3.30
2019-01-18T08:55:12.536Z,3.40
2019-01-18T08:57:53.191Z,3.50
2019-01-18T09:00:33.697Z,3.60
2019-01-18T09:03:14.100Z,3.70
2019-01-18T09:05:54.628Z,4.00
2019-01-18T09:08:35.352Z,5.30
2019-01-18T09:11:15.960Z,7.50
2019-01-18T09:13:59.900Z,10.30
2019-01-18T09:16:38.915Z,12.80
2019-01-18T09:19:19.339Z,14.90
2019-01-18T09:22:00.296Z,16.80
2019-01-18T09:24:41.011Z,18.60
2019-01-18T09:27:21.505Z,20.20
2019-01-18T09:30:02.008Z,21.60
2019-01-18T09:32:42.824Z,22.60
2019-01-18T09:35:23.373Z,23.60
2019-01-18T09:38:04.068Z,24.60
2019-01-18T09:40:44.772Z,25.60
2019-01-18T09:43:25.312Z,26.60
2019-01-18T09:46:06.076Z,27.20
2019-01-18T09:48:46.668Z,27.40
2019-01-18T09:51:27.512Z,27.40
2019-01-18T09:54:08.288Z,28.10
2019-01-18T09:56:48.956Z,28.80
2019-01-18T09:59:29.695Z,29.20
2019-01-18T10:02:10.248Z,29.40
2019-01-18T10:04:51.464Z,29.50
2019-01-18T10:07:32.425Z,29.40
2019-01-18T10:10:12.848Z,28.80
2019-01-18T10:12:53.533Z,27.00
2019-01-18T10:15:34.272Z,25.70
2019-01-18T10:18:14.685Z,24.10
2019-01-18T10:20:55.584Z,23.50
2019-01-18T10:23:36.341Z,23.30
2019-01-18T10:26:17.007Z,22.30
2019-01-18T10:28:58.180Z,21.20
2019-01-18T10:31:38.750Z,19.90
2019-01-18T10:34:19.250Z,18.70
2019-01-18T10:36:59.818Z,17.50
2019-01-18T10:39:40.520Z,16.60
2019-01-18T10:42:21.076Z,15.60
2019-01-18T10:45:01.961Z,14.70
2019-01-18T10:47:42.672Z,13.90
2019-01-18T10:50:23.377Z,13.60
2019-01-18T10:53:04.106Z,14.10
2019-01-18T10:55:44.503Z,14.30
2019-01-18T10:58:25.504Z,14.10
2019-01-18T11:01:06.251Z,13.70
2019-01-18T11:03:47.065Z,13.20
2019-01-18T11:06:27.752Z,13.20
2019-01-18T11:09:09.692Z,13.50
2019-01-18T11:11:50.168Z,14.40
2019-01-18T11:14:30.990Z,16.10
2019-01-18T11:17:11.936Z,17.40
2019-01-18T11:19:52.765Z,18.90
2019-01-18T11:22:33.121Z,20.60
2019-01-18T11:25:14.551Z,22.10
2019-01-18T11:27:55.560Z,23.80
2019-01-18T11:30:36.296Z,24.90
2019-01-18T11:33:17.193Z,25.60
2019-01-18T11:35:58.052Z,26.70
2019-01-18T11:38:38.667Z,27.80
2019-01-18T11:41:19.795Z,27.90
2019-01-18T11:44:00.520Z,27.50
2019-01-18T11:46:41.675Z,27.60
2019-01-18T11:49:21.996Z,26.90
2019-01-18T11:52:02.965Z,25.80
2019-01-18T11:54:44.132Z,24.10
2019-01-18T11:57:24.988Z,22.80
2019-01-18T12:00:06.047Z,22.50
2019-01-18T12:02:46.491Z,21.10
2019-01-18T12:05:26.710Z,19.70
2019-01-18T12:08:07.480Z,18.50
2019-01-18T12:10:48.033Z,18.30
2019-01-18T12:13:28.621Z,18.30
2019-01-18T12:16:09.486Z,18.00
2019-01-18T12:18:50.379Z,17.00
2019-01-18T12:21:37.002Z,17.10
2019-01-18T12:24:14.184Z,17.00
2019-01-18T12:26:55.065Z,18.10
2019-01-18T12:29:35.986Z,18.70
2019-01-18T12:32:16.317Z,19.40
2019-01-18T12:34:57.246Z,20.10
2019-01-18T12:37:38.428Z,20.30
2019-01-18T12:40:19.223Z,20.50
2019-01-18T12:42:59.997Z,20.00
2019-01-18T12:45:41.610Z,18.80
2019-01-18T12:48:22.308Z,19.10
2019-01-18T12:51:03.489Z,19.30
2019-01-18T12:53:44.588Z,20.00
2019-01-18T12:56:25.237Z,20.40
2019-01-18T12:59:05.783Z,20.10
2019-01-18T13:01:46.820Z,20.10
2019-01-18T13:04:27.419Z,20.00
2019-01-18T13:07:08.304Z,20.30
2019-01-18T13:09:48.975Z,20.20
2019-01-18T13:12:30.197Z,20.80
2019-01-18T13:15:10.816Z,22.00
2019-01-18T13:17:51.685Z,23.10
2019-01-18T13:20:32.212Z,23.90
2019-01-18T13:23:12.624Z,23.40
2019-01-18T13:25:53.315Z,22.50
2019-01-18T13:28:33.768Z,21.40
2019-01-18T13:31:14.300Z,20.60
2019-01-18T13:33:54.822Z,20.10
2019-01-18T13:36:35.411Z,19.40
2019-01-18T13:39:16.273Z,18.40
2019-01-18T13:41:57.119Z,16.60
2019-01-18T13:44:43.410Z,15.10
2019-01-18T13:47:20.126Z,13.90
2019-01-18T13:50:00.666Z,12.50
2019-01-18T13:52:41.424Z,11.70
2019-01-18T13:55:22.139Z,10.80
2019-01-18T13:58:02.932Z,10.10
2019-01-18T14:00:43.348Z,10.20
2019-01-18T14:03:23.592Z,11.10
2019-01-18T14:06:04.224Z,11.80
2019-01-18T14:08:44.973Z,12.10
2019-01-18T14:11:25.336Z,12.00
2019-01-18T14:14:06.432Z,11.50
2019-01-18T14:16:46.996Z,11.00
2019-01-18T14:19:28.005Z,11.00
2019-01-18T14:22:08.440Z,10.50
2019-01-18T14:24:49.237Z,10.00
2019-01-18T14:27:30.101Z,9.60
2019-01-18T14:30:10.848Z,9.00
2019-01-18T14:32:55.473Z,8.60
2019-01-18T14:35:34.263Z,8.20
2019-01-18T14:38:14.731Z,7.80
2019-01-18T14:40:55.500Z,7.40
2019-01-18T14:43:35.695Z,7.10
2019-01-18T14:46:16.868Z,6.80
2019-01-18T14:48:57.512Z,6.60
2019-01-18T14:51:38.448Z,6.50
2019-01-18T14:54:19.320Z,6.30
2019-01-18T14:56:59.849Z,6.20
2019-01-18T14:59:40.237Z,6.00
2019-01-18T15:02:21.040Z,6.00
2019-01-18T15:05:01.644Z,5.90
2019-01-18T15:07:42.584Z,5.90
2019-01-18T15:10:22.952Z,5.80
2019-01-18T15:13:03.428Z,5.90
2019-01-18T15:15:43.887Z,5.80
2019-01-18T15:18:24.831Z,5.80
2019-01-18T15:21:05.688Z,5.80
2019-01-18T15:23:46.272Z,5.90
2019-01-18T15:26:26.920Z,5.90
2019-01-18T15:29:07.539Z,5.90
2019-01-18T15:31:48.169Z,5.90
2019-01-18T15:34:28.773Z,5.90
2019-01-18T15:37:09.829Z,5.80
2019-01-18T15:39:50.948Z,5.70
2019-01-18T15:42:31.648Z,5.70
2019-01-18T15:45:12.188Z,5.60
2019-01-18T15:47:52.916Z,5.50
2019-01-18T15:50:33.357Z,5.50
2019-01-18T15:53:13.925Z,5.40
2019-01-18T15:55:54.355Z,5.40
2019-01-18T15:58:34.856Z,5.30
2019-01-18T16:01:15.329Z,5.30
2019-01-18T16:03:56.020Z,5.20
2019-01-18T16:06:36.636Z,5.10
2019-01-18T16:09:16.815Z,5.00
2019-01-18T16:11:57.609Z,4.90
2019-01-18T16:14:37.996Z,4.80
2019-01-18T16:17:18.488Z,4.70
2019-01-18T16:19:58.977Z,4.60
2019-01-18T16:22:40.955Z,4.50
2019-01-18T16:25:21.796Z,4.30
2019-01-18T16:28:02.364Z,4.20
2019-01-18T16:30:42.844Z,4.10
2019-01-18T16:33:23.796Z,4.00
2019-01-18T16:36:04.911Z,3.90
2019-01-18T16:38:45.896Z,3.80
2019-01-18T16:41:26.764Z,3.70
2019-01-18T16:44:07.312Z,3.60
2019-01-18T16:46:48.401Z,3.50
2019-01-18T16:49:28.690Z,3.40
2019-01-18T16:52:09.379Z,3.30
2019-01-18T16:54:50.072Z,3.30
2019-01-18T16:57:30.488Z,3.20
2019-01-18T17:00:11.268Z,3.10
2019-01-18T17:02:51.921Z,3.00
2019-01-18T17:05:32.489Z,2.90
2019-01-18T17:08:13.196Z,2.90
2019-01-18T17:10:53.747Z,2.80
2019-01-18T17:13:34.389Z,2.70
2019-01-18T17:16:14.913Z,2.60
2019-01-18T17:18:55.680Z,2.50
2019-01-18T17:21:36.221Z,2.50
2019-01-18T17:24:16.612Z,2.50
2019-01-18T17:26:57.604Z,2.40
2019-01-18T17:29:38.476Z,2.40
2019-01-18T17:32:19.401Z,2.30
2019-01-18T17:34:59.884Z,2.30
2019-01-18T17:37:40.883Z,2.20
2019-01-18T17:40:21.530Z,2.20
2019-01-18T17:43:01.783Z,2.10
2019-01-18T17:45:42.817Z,2.10
2019-01-18T17:48:23.907Z,2.00
2019-01-18T17:51:09.006Z,1.90
2019-01-18T17:53:47.537Z,1.90
2019-01-18T17:56:28.172Z,1.90
2019-01-18T17:59:08.896Z,1.80
2019-01-18T18:01:49.516Z,1.80
2019-01-18T18:04:30.152Z,1.70
2019-01-18T18:07:11.144Z,1.70
2019-01-18T18:09:51.424Z,1.70
2019-01-18T18:12:31.848Z,1.60
2019-01-18T18:15:12.360Z,1.60
2019-01-18T18:17:53.144Z,1.60
2019-01-18T18:20:34.206Z,1.50
2019-01-18T18:23:14.616Z,1.50
2019-01-18T18:25:55.357Z,1.50
2019-01-18T18:28:36.288Z,1.40
2019-01-18T18:31:17.004Z,1.40
2019-01-18T18:33:57.773Z,1.30
2019-01-18T18:36:38.752Z,1.30
2019-01-18T18:39:19.799Z,1.30
2019-01-18T18:42:00.697Z,1.30
2019-01-18T18:44:41.764Z,1.30
2019-01-18T18:47:22.624Z,1.30
2019-01-18T18:50:03.388Z,1.20
2019-01-18T18:52:44.209Z,1.30
2019-01-18T18:55:24.600Z,1.20
2019-01-18T18:58:05.024Z,1.20
2019-01-18T19:00:46.097Z,1.20
2019-01-18T19:03:26.788Z,1.20
2019-01-18T19:06:07.336Z,1.20
2019-01-18T19:08:48.382Z,1.10
2019-01-18T19:11:28.631Z,1.20
2019-01-18T19:14:09.033Z,1.10
2019-01-18T19:16:49.827Z,1.10
2019-01-18T19:19:30.477Z,1.10
2019-01-18T19:22:11.532Z,1.10
2019-01-18T19:24:52.461Z,1.10
2019-01-18T19:27:32.786Z,1.10
2019-01-18T19:30:13.375Z,1.00
2019-01-18T19:32:54.324Z,1.00
2019-01-18T19:35:34.996Z,1.00
2019-01-18T19:38:15.788Z,0.90
2019-01-18T19:40:56.609Z,0.90
2019-01-18T19:43:36.987Z,0.90
2019-01-18T19:46:17.712Z,0.90
2019-01-18T19:48:58.793Z,0.90
2019-01-18T19:51:39.540Z,0.80
2019-01-18T19:54:20.153Z,0.80
2019-01-18T19:57:00.879Z,0.80
2019-01-18T19:59:41.195Z,0.80
2019-01-18T20:02:21.870Z,0.80
2019-01-18T20:05:02.356Z,0.80
2019-01-18T20:07:42.804Z,0.70
2019-01-18T20:10:23.943Z,0.70
2019-01-18T20:13:07.297Z,0.70
2019-01-18T20:15:47.580Z,0.70
2019-01-18T20:18:28.304Z,0.60
2019-01-18T20:21:08.757Z,0.60
2019-01-18T20:23:49.356Z,0.50
2019-01-18T20:26:30.176Z,0.50
2019-01-18T20:29:10.945Z,0.50
2019-01-18T20:31:51.729Z,0.50
2019-01-18T20:34:32.272Z,0.50
2019-01-18T20:37:12.992Z,0.50
2019-01-18T20:39:53.824Z,0.50
2019-01-18T20:42:34.604Z,0.50
2019-01-18T20:45:15.420Z,0.50
2019-01-18T20:47:56.122Z,0.50
2019-01-18T20:53:19.098Z,0.50
2019-01-18T20:56:00.029Z,0.40
2019-01-18T20:58:40.832Z,0.40
2019-01-18T21:01:21.484Z,0.40
2019-01-18T21:04:02.225Z,0.40
2019-01-18T21:06:42.676Z,0.40
2019-01-18T21:09:23.385Z,0.40
2019-01-18T21:12:03.926Z,0.30
2019-01-18T21:14:44.788Z,0.30
2019-01-18T21:17:25.412Z,0.30
2019-01-18T21:20:06.249Z,0.30
2019-01-18T21:22:46.676Z,0.30
2019-01-18T21:25:27.513Z,0.30
2019-01-18T21:28:08.209Z,0.30
2019-01-18T21:30:49.096Z,0.30
2019-01-18T21:33:29.644Z,0.30
2019-01-18T21:36:10.209Z,0.20
2019-01-18T21:38:50.666Z,0.20
2019-01-18T21:41:31.693Z,0.20
2019-01-18T21:44:12.620Z,0.20
2019-01-18T21:46:53.147Z,0.20
2019-01-18T21:49:34.011Z,0.20
2019-01-18T21:52:14.788Z,0.20
2019-01-18T21:54:55.733Z,0.20
2019-01-18T21:57:36.404Z,0.20
2019-01-18T22:00:17.392Z,0.20
2019-01-18T22:02:57.983Z,0.10
2019-01-18T22:05:39.219Z,0.10
2019-01-18T22:08:19.660Z,0.10
2019-01-18T22:11:00.460Z,0.10
2019-01-18T22:13:41.273Z,0.00
2019-01-18T22:16:21.607Z,0.00
2019-01-18T22:19:02.244Z,0.00
2019-01-18T22:21:43.396Z,0.00
2019-01-18T22:24:24.227Z,0.00
2019-01-18T22:27:04.420Z,-0.10
2019-01-18T22:29:44.868Z,0.00
2019-01-18T22:32:25.659Z,0.00
2019-01-18T22:35:06.520Z,0.00
2019-01-18T22:37:46.912Z,-0.10
2019-01-18T22:40:27.656Z,-0.10
2019-01-18T22:43:07.888Z,-0.10
2019-01-18T22:45:48.376Z,-0.10
2019-01-18T22:48:29.060Z,-0.20
2019-01-18T22:51:09.784Z,-0.20
2019-01-18T22:53:50.599Z,-0.20
2019-01-18T22:56:31.229Z,-0.20
2019-01-18T22:59:11.448Z,-0.20
2019-01-18T23:01:52.153Z,-0.20
2019-01-18T23:04:32.628Z,-0.10
2019-01-18T23:07:13.280Z,-0.10
2019-01-18T23:09:54.389Z,-0.10
2019-01-18T23:12:34.752Z,-0.10
2019-01-18T23:15:15.244Z,-0.10
2019-01-18T23:17:55.941Z,-0.10
2019-01-18T23:20:36.959Z,-0.20
2019-01-18T23:23:18.235Z,-0.10
2019-01-18T23:25:59.105Z,-0.20
2019-01-18T23:28:39.784Z,-0.20
2019-01-18T23:31:20.689Z,-0.20
2019-01-18T23:34:01.678Z,-0.20
2019-01-18T23:36:42.211Z,-0.20
2019-01-18T23:39:22.936Z,-0.30
2019-01-18T23:42:03.444Z,-0.30
2019-01-18T23:44:44.327Z,-0.30
2019-01-18T23:47:25.732Z,-0.30
2019-01-18T23:50:06.865Z,-0.30
2019-01-18T23:52:47.424Z,-0.40
2019-01-18T23:55:28.119Z,-0.40
2019-01-18T23:58:08.704Z,-0.40
